KLTS

Altus AFB Airport

Altus, Oklahoma, USA
METAR KLTS 230056Z AUTO 15007KT 10SM BKN100 16/11 A3012 RMK AO2 SLP198 T01570111 $
Observed Flight Rules
Oct-23 @ 00:56 UTC (38 minutes ago) Visual Flight Rules
Wind Visibility Clouds
150° at 7 knots 10 miles
  • Broken at 10,000' AGL
Temperatures Readings
Current 16°C / 61°F
Dewpoint 11°C / 52°F
Humidity 72%
Altimeter 30.12" Hg
Pressure 1019.8 hPa
Elevation 420
METAR KLTS 230056Z AUTO 15007KT 10SM BKN100 16/11 A3012 RMK AO2 SLP198 T01570111 $
Observed Flight Rules
Oct-23 @ 00:56 UTC
(38 minutes ago)
VFR
Wind Visibility
150° at 7 knots 10 miles
Clouds
  • Broken at 10,000' AGL
Temperature Dewpoint
16°C / 61°F 11°C / 52°F
Humidity Altimeter Pressure
72% 30.12" Hg 1019.8 hPa